Last 7 Days

Gordon Valley 3

Hourly Data | America/Los_Angeles
as of 12/1/21 2:05 AM PST
Date & Time Temp (°F) RH (%) Dew Pt (°F) Wind Spd (mph) Wind Dir (°) Wind Gust (mph) Wind Gst Dir (°) Latest Rain (In) Daily Rain (In) Daily Min Temp (°F) Daily Max Temp (°F)
12/1/21 - 0200 41.8 100 41.8 1.6 NNE | 28 5.1 E | 82 0.00 0.01 41.0 44.0
12/1/21 - 0100 42.4 100 42.3 1.3 ENE | 72 4.1 WNW | 293 0.01 0.01 41.5 44.0
12/1/21 - 0000 42.7 100 42.6 1.9 NNE | 31 5.1 ENE | 75 0.00 0.00 39.4 69.2
11/30/21 - 2300 43.5 99 43.4 1.2 NE | 46 4.1 NW | 310 0.00 0.00 39.4 69.2
11/30/21 - 2200 44.1 99 43.8 1.4 NE | 43 3.8 N | 0 0.00 0.00 39.4 69.2
11/30/21 - 2100 45.0 98 44.4 1.4 NE | 43 3.8 ENE | 59 0.00 0.00 39.4 69.2
11/30/21 - 2000 46.4 97 45.4 1.0 NE | 36 4.1 ENE | 64 0.00 0.00 39.4 69.2
11/30/21 - 1900 48.0 96 46.9 1.4 ENE | 67 3.8 NE | 56 0.00 0.00 39.4 69.2
11/30/21 - 1800 51.9 92 49.6 0.9 NNE | 27 2.7 NNW | 337 0.00 0.00 39.4 69.2
11/30/21 - 1700 61.1 72 52.0 1.0 SSE | 165 5.4 SSE | 161 0.00 0.00 39.4 69.2
11/30/21 - 1600 67.1 58 51.8 3.3 S | 177 6.4 S | 187 0.00 0.00 39.4 69.2
11/30/21 - 1500 68.4 56 51.9 3.5 S | 189 6.1 S | 183 0.00 0.00 39.4 69.2
11/30/21 - 1400 68.5 57 52.5 4.0 S | 188 8.4 SSE | 155 0.00 0.00 39.4 69.2
11/30/21 - 1300 67.4 58 52.2 2.6 SSW | 213 6.8 SW | 218 0.00 0.00 39.4 68.3
11/30/21 - 1200 64.5 65 52.4 4.0 S | 184 6.8 S | 180 0.00 0.00 39.4 66.5
11/30/21 - 1100 63.5 68 52.6 2.2 S | 182 5.8 SSE | 168 0.00 0.00 39.4 65.1
11/30/21 - 1000 58.4 75 50.5 0.9 SSW | 197 3.8 SSW | 205 0.00 0.00 39.4 62.2
11/30/21 - 0900 48.9 97 48.1 0.0 E | 92 1.7 E | 86 0.00 0.00 39.4 54.1
11/30/21 - 0800 40.9 100 40.8 0.3 NE | 54 3.8 E | 82 0.00 0.00 39.4 49.7
11/30/21 - 0700 41.2 100 41.1 1.6 NE | 39 4.8 ENE | 78 0.00 0.00 39.7 49.7
11/30/21 - 0600 40.4 100 40.2 1.7 NE | 38 3.4 NNW | 331 0.00 0.00 39.7 49.7
11/30/21 - 0500 41.4 99 41.2 0.5 NE | 35 3.4 NE | 37 0.00 0.00 40.3 49.7
11/30/21 - 0400 44.0 99 43.7 1.2 NE | 42 4.4 NE | 53 0.00 0.00 42.5 49.7
11/30/21 - 0300 44.5 99 44.2 1.1 NE | 49 4.1 NNE | 13 0.00 0.00 43.6 49.7
11/30/21 - 0200 47.4 98 46.8 1.7 NE | 41 5.8 N | 0 0.00 0.00 45.0 49.7
11/30/21 - 0100 47.5 98 47.1 2.1 NE | 48 4.4 ENE | 66 0.00 0.00 46.2 48.8
11/30/21 - 0000 48.6 99 48.4 2.8 NE | 50 4.8 NE | 36 0.01 0.01 40.1 69.8
11/29/21 - 2300 47.6 99 47.5 2.5 NE | 52 5.1 NNE | 29 0.00 0.00 40.1 69.8
11/29/21 - 2200 47.9 99 47.7 1.8 ENE | 57 4.8 NE | 47 0.00 0.00 40.1 69.8
11/29/21 - 2100 47.3 99 47.0 1.2 NE | 53 3.8 NE | 53 0.00 0.00 40.1 69.8
11/29/21 - 2000 48.3 97 47.5 1.2 NNE | 22 3.8 NNE | 28 0.00 0.00 40.1 69.8
11/29/21 - 1900 51.3 96 50.3 1.5 NE | 55 3.4 NE | 40 0.00 0.00 40.1 69.8
11/29/21 - 1800 53.4 93 51.6 0.6 NE | 54 2.4 NE | 35 0.00 0.00 40.1 69.8
11/29/21 - 1700 62.6 76 54.7 1.3 SSE | 151 3.8 SSE | 156 0.00 0.00 40.1 69.8
11/29/21 - 1600 68.5 63 55.6 2.1 S | 189 6.4 S | 186 0.00 0.00 40.1 69.8
11/29/21 - 1500 69.2 61 55.1 3.3 SSW | 194 6.1 SSW | 192 0.00 0.00 40.1 69.8
11/29/21 - 1400 68.5 61 54.6 3.0 SSW | 204 6.4 SW | 231 0.00 0.00 40.1 69.8
11/29/21 - 1300 67.4 61 53.6 4.2 SSW | 213 7.1 SSW | 198 0.00 0.00 40.1 68.0
11/29/21 - 1200 65.6 63 52.8 3.7 SSW | 213 7.1 SW | 220 0.00 0.00 40.1 66.8
11/29/21 - 1100 63.0 65 51.2 1.9 S | 187 4.4 SSW | 192 0.00 0.00 40.1 64.6
11/29/21 - 1000 57.9 75 50.1 2.1 SSW | 194 4.8 SW | 230 0.00 0.00 40.1 60.2
11/29/21 - 0900 52.4 92 50.2 1.6 SSW | 198 5.4 SSW | 204 0.00 0.00 40.1 55.7
11/29/21 - 0800 43.4 100 43.4 1.5 NE | 48 4.4 ENE | 60 0.00 0.00 40.1 47.7
11/29/21 - 0700 41.5 100 41.4 1.8 NE | 50 4.1 ENE | 75 0.00 0.00 40.1 47.4
11/29/21 - 0600 41.8 99 41.6 0.8 NNE | 15 2.7 E | 86 0.00 0.00 40.9 47.4
11/29/21 - 0500 43.1 99 42.9 1.1 NE | 47 2.7 E | 99 0.00 0.00 42.3 47.4
11/29/21 - 0400 43.8 99 43.5 1.4 NE | 41 4.4 E | 84 0.00 0.00 42.7 47.4
11/29/21 - 0300 44.0 99 43.6 1.0 NE | 53 3.1 E | 80 0.00 0.00 43.5 47.4
11/29/21 - 0200 44.6 98 44.2 1.4 NE | 39 3.1 ENE | 64 0.00 0.00 43.9 47.4
11/29/21 - 0100 46.0 97 45.3 1.5 NE | 51 4.4 ENE | 63 0.00 0.00 43.9 47.4
11/29/21 - 0000 45.5 98 45.1 1.6 NE | 56 4.4 ENE | 65 0.00 0.00 39.7 69.1
11/28/21 - 2300 46.1 97 45.4 1.0 NE | 46 3.8 NE | 38 0.00 0.00 39.7 69.1
11/28/21 - 2200 47.2 97 46.4 1.4 NE | 54 3.4 N | 11 0.00 0.00 39.7 69.1
11/28/21 - 2100 47.5 97 46.8 0.8 NE | 56 3.1 ENE | 74 0.00 0.00 39.7 69.1
11/28/21 - 2000 48.5 96 47.3 0.6 NE | 55 3.1 NNE | 29 0.00 0.00 39.7 69.1
11/28/21 - 1900 50.6 94 49.0 0.4 ENE | 66 3.1 ENE | 74 0.00 0.00 39.7 69.1
11/28/21 - 1800 54.1 87 50.4 0.2 NNE | 21 2.4 N | 5 0.00 0.00 39.7 69.1
11/28/21 - 1700 62.8 67 51.6 2.6 SW | 223 6.8 SW | 234 0.00 0.00 39.7 69.1
11/28/21 - 1600 67.1 58 51.7 4.3 SW | 234 7.4 SW | 225 0.00 0.00 39.7 69.1
11/28/21 - 1500 67.6 57 52.0 5.2 SW | 229 9.1 SW | 225 0.00 0.00 39.7 69.1
11/28/21 - 1400 68.4 54 51.1 4.3 SSW | 206 7.4 SSW | 213 0.00 0.00 39.7 69.1
11/28/21 - 1300 67.2 55 50.4 3.6 SSW | 208 7.1 SW | 223 0.00 0.00 39.7 68.6
11/28/21 - 1200 63.8 61 50.0 3.7 SW | 223 7.8 WSW | 247 0.00 0.00 39.7 65.6
11/28/21 - 1100 60.9 64 48.7 2.8 SSW | 206 5.8 SSW | 202 0.00 0.00 39.7 62.7
11/28/21 - 1000 58.5 65 46.8 0.9 SW | 217 4.1 SSW | 200 0.00 0.00 39.7 60.2
11/28/21 - 0900 48.1 90 45.3 0.1 ENE | 68 2.4 E | 93 0.00 0.00 39.7 53.5
11/28/21 - 0800 40.9 98 40.5 0.2 NW | 308 3.8 NW | 319 0.00 0.00 39.7 44.5
11/28/21 - 0700 40.3 98 39.8 0.8 NNE | 25 2.7 NNE | 21 0.00 0.00 39.7 44.5
11/28/21 - 0600 41.4 97 40.6 0.3 NNE | 13 3.1 N | 1 0.00 0.00 40.2 44.5
11/28/21 - 0500 42.9 97 42.1 1.2 NE | 54 3.4 ENE | 75 0.00 0.00 42.4 44.5
11/28/21 - 0400 43.2 97 42.5 1.3 NE | 52 3.8 ENE | 75 0.00 0.00 42.4 44.5
11/28/21 - 0300 42.9 98 42.4 1.0 NE | 45 3.1 ENE | 71 0.00 0.00 42.4 44.5
11/28/21 - 0200 43.3 98 42.7 1.1 NE | 49 3.1 ENE | 60 0.00 0.00 42.6 44.5
11/28/21 - 0100 43.6 97 43.0 1.5 NNE | 26 3.4 E | 79 0.00 0.00 42.8 44.5
11/28/21 - 0000 44.4 96 43.5 0.4 NE | 38 2.4 NNE | 30 0.00 0.00 37.5 67.1
11/27/21 - 2300 45.4 95 44.1 0.9 NE | 38 3.1 ENE | 67 0.00 0.00 37.5 67.1
11/27/21 - 2200 47.2 92 45.1 1.9 NE | 55 4.1 ENE | 66 0.00 0.00 37.5 67.1
11/27/21 - 2100 46.5 94 44.9 1.3 NE | 47 4.1 ENE | 74 0.00 0.00 37.5 67.1
11/27/21 - 2000 47.8 92 45.7 1.4 ENE | 57 3.4 ENE | 66 0.00 0.00 37.5 67.1
11/27/21 - 1900 49.6 90 47.0 1.6 ENE | 60 3.8 E | 80 0.00 0.00 37.5 67.1
11/27/21 - 1800 52.0 87 48.2 0.7 NE | 49 2.4 NNE | 33 0.00 0.00 37.5 67.1
11/27/21 - 1700 60.0 68 49.1 0.1 S | 190 2.7 SSW | 201 0.00 0.00 37.5 67.1
11/27/21 - 1600 65.0 54 47.8 3.0 S | 186 7.1 S | 174 0.00 0.00 37.5 67.1
11/27/21 - 1500 66.6 50 47.5 3.7 SSW | 194 7.1 S | 191 0.00 0.00 37.5 67.1
11/27/21 - 1400 66.6 49 46.9 3.7 SSW | 197 8.1 SSW | 195 0.00 0.00 37.5 67.1
11/27/21 - 1300 65.8 49 46.4 3.5 S | 190 7.1 SSE | 163 0.00 0.00 37.5 66.9
11/27/21 - 1200 63.5 54 46.7 3.9 SW | 218 6.8 SSW | 196 0.00 0.00 37.5 65.3
11/27/21 - 1100 62.6 54 45.8 3.0 SSW | 202 6.1 SSW | 197 0.00 0.00 37.5 63.6
11/27/21 - 1000 59.5 57 44.1 1.2 SSW | 199 3.8 WSW | 251 0.00 0.00 37.5 61.7
11/27/21 - 0900 48.7 82 43.4 0.3 E | 90 2.7 ESE | 103 0.00 0.00 37.5 56.0
11/27/21 - 0800 39.1 98 38.6 0.3 NE | 42 2.7 NNE | 21 0.00 0.00 37.5 43.1
11/27/21 - 0700 38.4 97 37.7 0.3 NNE | 29 2.7 NNW | 338 0.00 0.00 37.8 43.1
11/27/21 - 0600 39.4 97 38.6 0.8 NE | 50 3.8 ENE | 67 0.00 0.00 38.8 43.1
11/27/21 - 0500 39.5 97 38.8 1.3 NE | 43 3.4 N | 11 0.00 0.00 38.9 43.1
11/27/21 - 0400 39.9 97 39.0 0.8 NE | 37 2.7 NW | 313 0.00 0.00 39.4 43.1
11/27/21 - 0300 41.1 96 40.1 0.8 N | 9 3.1 NNW | 333 0.00 0.00 40.2 43.1
11/27/21 - 0200 42.0 95 40.8 0.9 NNE | 18 2.7 NNE | 27 0.00 0.00 41.3 43.1
11/27/21 - 0100 42.6 95 41.2 1.0 NE | 41 3.1 ENE | 72 0.00 0.00 42.1 43.1
11/27/21 - 0000 44.1 92 41.9 1.4 NNE | 33 3.8 NE | 44 0.00 0.00 36.0 66.6
11/26/21 - 2300 44.7 92 42.4 1.4 ENE | 61 3.8 E | 80 0.00 0.00 36.0 66.6
11/26/21 - 2200 44.9 94 43.2 1.7 NE | 56 4.1 E | 84 0.00 0.00 36.0 66.6
11/26/21 - 2100 45.1 95 43.8 0.8 NE | 40 3.4 NE | 36 0.00 0.00 36.0 66.6
11/26/21 - 2000 45.6 94 44.1 0.3 NNE | 25 2.4 ENE | 67 0.00 0.00 36.0 66.6
11/26/21 - 1900 48.0 91 45.6 0.4 NE | 36 3.1 NNE | 22 0.00 0.00 36.0 66.6
11/26/21 - 1800 51.6 86 47.5 0.7 ENE | 58 2.7 NNE | 15 0.00 0.00 36.0 66.6
11/26/21 - 1700 56.5 75 48.8 0.6 NE | 41 3.4 E | 87 0.00 0.00 36.0 66.6
11/26/21 - 1600 64.0 52 46.0 1.2 SSW | 194 3.8 SW | 229 0.00 0.00 36.0 66.6
11/26/21 - 1500 65.9 45 44.1 2.3 S | 188 5.1 S | 180 0.00 0.00 36.0 66.6
11/26/21 - 1400 65.0 47 44.5 2.6 S | 172 5.4 SW | 222 0.00 0.00 36.0 65.8
11/26/21 - 1300 63.9 47 43.5 2.9 S | 174 6.1 SSE | 153 0.00 0.00 36.0 64.7
11/26/21 - 1200 61.9 49 42.6 2.6 S | 182 5.8 SSE | 164 0.00 0.00 36.0 63.9
11/26/21 - 1100 60.4 49 41.3 0.7 SSW | 197 4.1 S | 188 0.00 0.00 36.0 62.5
11/26/21 - 1000 56.3 57 41.2 1.5 S | 187 4.8 SSW | 209 0.00 0.00 36.0 58.5
11/26/21 - 0900 45.9 80 40.1 0.4 NE | 39 3.1 ENE | 67 0.00 0.00 36.0 51.3
11/26/21 - 0800 36.9 95 35.6 0.6 NE | 37 4.8 ESE | 122 0.00 0.00 36.0 42.6
11/26/21 - 0700 37.5 93 35.7 1.4 NNE | 21 5.1 NNE | 17 0.00 0.00 36.6 42.6
11/26/21 - 0600 38.7 92 36.7 1.5 NE | 53 7.1 ENE | 70 0.00 0.00 37.8 42.6
11/26/21 - 0500 38.8 95 37.4 1.0 NNE | 24 4.8 NE | 46 0.00 0.00 37.9 42.6
11/26/21 - 0400 40.8 93 39.0 0.9 N | 5 3.8 NW | 316 0.00 0.00 39.8 42.6
11/26/21 - 0300 41.2 94 39.6 0.6 ENE | 67 3.8 ESE | 106 0.00 0.00 40.6 42.6
11/26/21 - 0200 41.3 94 39.6 0.6 N | 11 3.1 N | 2 0.00 0.00 40.8 42.6
11/26/21 - 0100 42.0 92 39.8 0.7 NE | 42 3.8 ENE | 75 0.00 0.00 41.3 42.6
11/26/21 - 0000 43.9 85 39.8 0.9 ENE | 65 4.8 ENE | 70 0.00 0.00 30.7 64.8
11/25/21 - 2300 42.8 90 40.1 0.8 ENE | 60 3.8 ENE | 77 0.00 0.00 30.7 64.8
11/25/21 - 2200 42.1 93 40.2 0.5 N | 9 3.8 ENE | 73 0.00 0.00 30.7 64.8
11/25/21 - 2100 41.2 94 39.6 0.3 N | 358 3.4 NNE | 28 0.00 0.00 30.7 64.8
11/25/21 - 2000 40.4 93 38.7 0.4 NE | 35 3.8 N | 8 0.00 0.00 30.7 64.8
11/25/21 - 1900 41.9 92 39.9 0.3 ENE | 77 3.1 E | 81 0.00 0.00 30.7 64.8
11/25/21 - 1800 46.2 83 41.2 0.4 NE | 48 3.1 NNE | 26 0.00 0.00 30.7 64.8
11/25/21 - 1700 58.3 52 40.8 0.7 WSW | 240 4.1 SW | 234 0.00 0.00 30.7 64.8
11/25/21 - 1600 62.2 39 37.0 3.5 E | 86 8.1 E | 83 0.00 0.00 30.7 64.8
11/25/21 - 1500 64.1 35 36.1 2.5 ESE | 109 6.1 E | 81 0.00 0.00 30.7 64.8
11/25/21 - 1400 63.3 37 36.3 3.9 E | 94 8.8 ESE | 110 0.00 0.00 30.7 64.0
11/25/21 - 1300 61.6 36 34.6 5.4 ESE | 114 12.5 ESE | 118 0.00 0.00 30.7 62.7
11/25/21 - 1200 60.3 36 32.9 5.3 ESE | 105 10.5 ESE | 112 0.00 0.00 30.7 61.3
11/25/21 - 1100 56.7 52 38.9 2.3 WSW | 242 5.1 SW | 230 0.00 0.00 30.7 58.8
11/25/21 - 1000 52.3 59 38.6 0.3 SW | 221 2.7 SSW | 203 0.00 0.00 30.7 55.8
11/25/21 - 0900 42.3 81 36.7 0.0 SE | 125 2.4 SE | 128 0.00 0.00 30.7 47.9
11/25/21 - 0800 32.6 97 31.9 0.1 ENE | 66 2.4 ENE | 73 0.00 0.00 30.7 36.2
11/25/21 - 0700 31.7 97 30.8 0.3 N | 5 3.1 NNW | 338 0.00 0.00 30.7 36.2
11/25/21 - 0600 31.7 97 31.0 0.3 ENE | 69 3.4 E | 86 0.00 0.00 31.0 36.2
11/25/21 - 0500 32.0 97 31.2 0.1 NNW | 345 3.1 NNW | 348 0.00 0.00 31.1 36.2
11/25/21 - 0400 32.6 96 31.7 0.2 N | 349 4.1 NW | 309 0.00 0.00 31.8 36.2
11/25/21 - 0300 34.1 95 32.7 0.5 NNE | 18 4.1 N | 354 0.00 0.00 32.9 36.2
11/25/21 - 0200 34.7 95 33.4 0.9 NNE | 24 5.1 NW | 314 0.00 0.00 33.9 36.2
11/25/21 - 0100 35.2 94 33.8 0.2 ENE | 60 4.1 E | 94 0.00 0.00 34.1 36.2
11/25/21 - 0000 35.9 94 34.4 0.4 NNE | 22 4.1 NNE | 29 0.00 0.00 35.0 68.6
11/24/21 - 2300 37.4 92 35.4 1.0 NNE | 27 4.4 E | 80 0.00 0.00 36.6 68.6
11/24/21 - 2200 38.3 92 36.3 0.9 NE | 39 4.8 E | 88 0.00 0.00 37.2 68.6
11/24/21 - 2100 39.2 92 37.2 0.2 NNE | 29 4.1 NNE | 27 0.00 0.00 38.0 68.6
11/24/21 - 2000 41.0 92 38.7 0.6 NNE | 32 3.8 ENE | 78 0.00 0.00 38.0 68.6
11/24/21 - 1900 43.5 87 40.0 0.5 NNE | 33 4.4 NNE | 13 0.00 0.00 38.0 68.6
11/24/21 - 1800 47.6 80 41.9 0.4 ENE | 74 3.4 ENE | 76 0.00 0.00 38.0 68.6
11/24/21 - 1700 56.4 62 43.3 0.8 NNE | 24 3.8 N | 0 0.00 0.00 38.0 68.6
11/24/21 - 1600 66.8 34 37.6 2.7 SSW | 197 5.1 SSE | 166 0.00 0.00 38.0 68.6
11/24/21 - 1500 67.8 29 34.2 3.6 S | 189 6.8 S | 184 0.00 0.00 38.0 68.6
11/24/21 - 1400 66.1 31 34.8 4.0 S | 187 7.4 S | 169 0.00 0.00 38.0 67.4
11/24/21 - 1300 65.2 32 34.8 2.9 S | 176 6.1 SSW | 200 0.00 0.00 38.0 66.2
11/24/21 - 1200 63.5 33 33.6 3.2 SSW | 194 7.1 SW | 224 0.00 0.00 38.0 65.1
11/24/21 - 1100 61.5 38 35.6 3.5 S | 182 7.8 S | 186 0.00 0.00 38.0 62.2
11/24/21 - 1000 59.1 37 33.1 1.5 S | 177 4.1 SE | 135 0.00 0.00 38.0 61.5
11/24/21 - 0900 50.4 53 33.4 0.2 ENE | 66 3.8 NE | 56 0.00 0.00 38.0 60.0
11/24/21 - 0800 40.3 66 30.0 0.8 NE | 45 5.1 NE | 36 0.00 0.00 38.0 60.0
11/24/21 - 0700 43.5 52 27.0 2.8 NE | 56 6.4 ENE | 68 0.00 0.00 38.9 60.0
11/24/21 - 0600 54.7 26 20.6 6.7 N | 353 18.5 NW | 315 0.00 0.00 50.3 60.0
11/24/21 - 0500 56.4 23 18.8 9.9 N | 349 19.8 WSW | 254 0.00 0.00 55.2 60.0
11/24/21 - 0400 56.6 24 20.3 9.1 N | 349 23.5 NW | 319 0.00 0.00 55.3 60.0
11/24/21 - 0300 57.6 24 21.4 11.3 NNW | 336 21.5 NW | 317 0.00 0.00 57.1 60.0
Max 69.2 100 55.6 11.3 - 23.5 - 0.01 0.01 57.1 69.8
Avg 50.3 79 42.4 1.7 - 4.9 - 0.00 - - -
Min 31.7 23 18.8 0.0 - 1.7 - 0.00 0.00 30.7 36.2
Total - - - - - - - 0.02 - - -
Tip: Bookmark this page for easy future reference